PWSweather.com
Personal Weather Stations
Station Observations
CALONGE
CalongeES 17251

CalongeES 17251

Lat: 41.85972222, Lon: 3.077777778

Elevation: 16

Station Type: Oregon WMR928N

www.calonge-meteoweb.com

High Low Average
Temperature 60.4°F15.8°C 44.4°F6.9°C 53.7°F12.1°C
Dew Point 54.2°F12.3°C 35.7°F2.1°C 42.2°F5.7°C
Winds 16.1 mph 25.9 kmh Calm Calm 6.0 mph SSE9.7 kmh SSE
Wind Gusts 22.3 mph35.9 kmh -- 10.0 mph16.1 kmh
Humidity 93% 46% 67%
Pressure 29.98 in1015.2 mb 29.68 in1005.1 mb -
Precipitation 0.02 in0.5 mm - -
Hour Temp Dew Point Humidity Winds Wind Gusts Pressure Precip Precip Rate Daily Precip Total
12:00 AM 56.5°F13.6°C 54.2°F12.3°C 92% 8.8 mph SW14.2 kmh SW 10.0 mph16.1 kmh 29.68 in1005.1 mb 0.00 in0.0 mm 0.00 in0.0 mm 0.02 in0.5 mm
12:15 AM 56.1°F13.4°C 54.1°F12.3°C 93% Calm Calm 11.4 mph18.3 kmh 29.68 in1005.1 mb 0.00 in0.0 mm 0.00 in0.0 mm 0.02 in0.5 mm
12:30 AM 55.9°F13.3°C 53.9°F12.2°C 93% 5.3 mph WNW8.5 kmh WNW 10.0 mph16.1 kmh 29.68 in1005.1 mb 0.00 in0.0 mm 0.00 in0.0 mm 0.02 in0.5 mm
12:45 AM 54.7°F12.6°C 51.5°F10.8°C 89% 7.0 mph W11.3 kmh W 8.2 mph13.2 kmh 29.68 in1005.1 mb 0.00 in0.0 mm 0.00 in0.0 mm 0.02 in0.5 mm
01:00 AM 55.2°F12.9°C 49.2°F9.6°C 80% 4.7 mph WNW7.6 kmh WNW 8.2 mph13.2 kmh 29.68 in1005.1 mb 0.00 in0.0 mm 0.00 in0.0 mm 0.00 in0.0 mm
01:15 AM 54.9°F12.7°C 47.4°F8.6°C 76% Calm Calm 7.6 mph12.2 kmh 29.68 in1005.1 mb 0.00 in0.0 mm 0.00 in0.0 mm 0.00 in0.0 mm
01:30 AM 54.1°F12.3°C 46.4°F8.0°C 75% Calm Calm 6.4 mph10.3 kmh 29.68 in1005.1 mb 0.00 in0.0 mm 0.00 in0.0 mm 0.00 in0.0 mm
01:45 AM 52.0°F11.1°C 44.3°F6.8°C 75% 10.5 mph W16.9 kmh W 12.0 mph19.3 kmh 29.68 in1005.1 mb 0.00 in0.0 mm 0.00 in0.0 mm 0.00 in0.0 mm
02:00 AM 52.7°F11.5°C 43.9°F6.6°C 72% 4.7 mph W7.6 kmh W 13.8 mph22.2 kmh 29.68 in1005.1 mb 0.00 in0.0 mm 0.00 in0.0 mm 0.00 in0.0 mm
02:15 AM 52.3°F11.3°C 43.2°F6.2°C 71% 7.0 mph WSW11.3 kmh WSW 10.5 mph16.9 kmh 29.71 in1006.1 mb 0.00 in0.0 mm 0.00 in0.0 mm 0.00 in0.0 mm
02:30 AM 51.6°F10.9°C 42.9°F6.1°C 72% 4.7 mph W7.6 kmh W 10.0 mph16.1 kmh 29.71 in1006.1 mb 0.00 in0.0 mm 0.00 in0.0 mm 0.00 in0.0 mm
02:45 AM 52.0°F11.1°C 40.2°F4.6°C 64% 8.2 mph WSW13.2 kmh WSW 11.4 mph18.3 kmh 29.68 in1005.1 mb 0.00 in0.0 mm 0.00 in0.0 mm 0.00 in0.0 mm
03:00 AM 53.1°F11.7°C 38.2°F3.4°C 57% 9.4 mph W15.1 kmh W 13.8 mph22.2 kmh 29.68 in1005.1 mb 0.00 in0.0 mm 0.00 in0.0 mm 0.00 in0.0 mm
03:15 AM 54.5°F12.5°C 35.7°F2.1°C 49% 10.5 mph W16.9 kmh W 19.6 mph31.5 kmh 29.68 in1005.1 mb 0.00 in0.0 mm 0.00 in0.0 mm 0.00 in0.0 mm
03:30 AM 54.7°F12.6°C 36.4°F2.4°C 50% Calm Calm 7.6 mph12.2 kmh 29.71 in1006.1 mb 0.00 in0.0 mm 0.00 in0.0 mm 0.00 in0.0 mm
03:45 AM 52.3°F11.3°C 37.5°F3.1°C 57% 5.3 mph SW8.5 kmh SW 7.6 mph12.2 kmh 29.71 in1006.1 mb 0.00 in0.0 mm 0.00 in0.0 mm 0.00 in0.0 mm
04:00 AM 52.3°F11.3°C 38.0°F3.3°C 58% Calm Calm -- 29.71 in1006.1 mb 0.00 in0.0 mm 0.00 in0.0 mm 0.00 in0.0 mm
04:15 AM 51.6°F10.9°C 37.7°F3.2°C 59% Calm Calm -- 29.71 in1006.1 mb 0.00 in0.0 mm 0.00 in0.0 mm 0.00 in0.0 mm
04:30 AM 51.1°F10.6°C 37.2°F2.9°C 59% Calm Calm -- 29.74 in1007.1 mb 0.00 in0.0 mm 0.00 in0.0 mm 0.00 in0.0 mm
04:45 AM 49.3°F9.6°C 37.6°F3.1°C 64% Calm Calm -- 29.74 in1007.1 mb 0.00 in0.0 mm 0.00 in0.0 mm 0.00 in0.0 mm
05:00 AM 47.5°F8.6°C 38.2°F3.4°C 70% Calm Calm 8.2 mph13.2 kmh 29.74 in1007.1 mb 0.00 in0.0 mm 0.00 in0.0 mm 0.00 in0.0 mm
05:15 AM 46.8°F8.2°C 38.6°F3.7°C 73% Calm Calm -- 29.74 in1007.1 mb 0.00 in0.0 mm 0.00 in0.0 mm 0.00 in0.0 mm
05:30 AM 45.9°F7.7°C 38.4°F3.6°C 75% Calm Calm -- 29.77 in1008.1 mb 0.00 in0.0 mm 0.00 in0.0 mm 0.00 in0.0 mm
05:45 AM 45.3°F7.4°C 38.5°F3.6°C 77% Calm Calm -- 29.77 in1008.1 mb 0.00 in0.0 mm 0.00 in0.0 mm 0.00 in0.0 mm
06:00 AM 44.4°F6.9°C 39.3°F4.1°C 82% Calm Calm -- 29.77 in1008.1 mb 0.00 in0.0 mm 0.00 in0.0 mm 0.00 in0.0 mm
06:15 AM 45.0°F7.2°C 40.1°F4.5°C 83% Calm Calm -- 29.80 in1009.1 mb 0.00 in0.0 mm 0.00 in0.0 mm 0.00 in0.0 mm
06:30 AM 45.0°F7.2°C 40.1°F4.5°C 83% 4.1 mph W6.6 kmh W 7.0 mph11.3 kmh 29.80 in1009.1 mb 0.00 in0.0 mm 0.00 in0.0 mm 0.00 in0.0 mm
06:45 AM 45.5°F7.5°C 41.3°F5.2°C 85% Calm Calm -- 29.80 in1009.1 mb 0.00 in0.0 mm 0.00 in0.0 mm 0.00 in0.0 mm
07:00 AM 46.0°F7.8°C 40.9°F4.9°C 82% 4.1 mph WNW6.6 kmh WNW 8.2 mph13.2 kmh 29.83 in1010.2 mb 0.00 in0.0 mm 0.00 in0.0 mm 0.00 in0.0 mm
07:15 AM 46.6°F8.1°C 41.4°F5.2°C 82% Calm Calm -- 29.83 in1010.2 mb 0.00 in0.0 mm 0.00 in0.0 mm 0.00 in0.0 mm
07:30 AM 46.9°F8.3°C 41.7°F5.4°C 82% Calm Calm -- 29.83 in1010.2 mb 0.00 in0.0 mm 0.00 in0.0 mm 0.00 in0.0 mm
07:45 AM 46.9°F8.3°C 41.7°F5.4°C 82% Calm Calm 5.9 mph9.5 kmh 29.83 in1010.2 mb 0.00 in0.0 mm 0.00 in0.0 mm 0.00 in0.0 mm
08:00 AM 48.4°F9.1°C 41.5°F5.3°C 77% Calm Calm -- 29.83 in1010.2 mb 0.00 in0.0 mm 0.00 in0.0 mm 0.00 in0.0 mm
08:15 AM 48.7°F9.3°C 42.5°F5.8°C 79% Calm Calm 5.3 mph8.5 kmh 29.86 in1011.2 mb 0.00 in0.0 mm 0.00 in0.0 mm 0.00 in0.0 mm
08:30 AM 49.3°F9.6°C 43.0°F6.1°C 79% Calm Calm -- 29.86 in1011.2 mb 0.00 in0.0 mm 0.00 in0.0 mm 0.00 in0.0 mm
08:45 AM 50.2°F10.1°C 44.2°F6.8°C 80% Calm Calm -- 29.86 in1011.2 mb 0.00 in0.0 mm 0.00 in0.0 mm 0.00 in0.0 mm
09:00 AM 52.7°F11.5°C 46.4°F8.0°C 79% 4.1 mph ESE6.6 kmh ESE 10.5 mph16.9 kmh 29.89 in1012.2 mb 0.00 in0.0 mm 0.00 in0.0 mm 0.00 in0.0 mm
09:15 AM 55.9°F13.3°C 45.9°F7.7°C 69% 10.5 mph SE16.9 kmh SE 14.4 mph23.2 kmh 29.89 in1012.2 mb 0.00 in0.0 mm 0.00 in0.0 mm 0.00 in0.0 mm
09:30 AM 57.0°F13.9°C 43.7°F6.5°C 61% 8.8 mph SE14.2 kmh SE 13.2 mph21.2 kmh 29.89 in1012.2 mb 0.00 in0.0 mm 0.00 in0.0 mm 0.00 in0.0 mm
09:45 AM 57.2°F14.0°C 41.2°F5.1°C 55% 10.5 mph SE16.9 kmh SE 14.4 mph23.2 kmh 29.92 in1013.2 mb 0.00 in0.0 mm 0.00 in0.0 mm 0.00 in0.0 mm
10:00 AM 57.4°F14.1°C 40.4°F4.7°C 53% 9.4 mph SE15.1 kmh SE 17.3 mph27.8 kmh 29.92 in1013.2 mb 0.00 in0.0 mm 0.00 in0.0 mm 0.00 in0.0 mm
10:15 AM 57.6°F14.2°C 39.6°F4.2°C 51% 12.0 mph SE19.3 kmh SE 17.9 mph28.8 kmh 29.92 in1013.2 mb 0.00 in0.0 mm 0.00 in0.0 mm 0.00 in0.0 mm
10:30 AM 57.6°F14.2°C 39.0°F3.9°C 50% 9.4 mph SE15.1 kmh SE 14.4 mph23.2 kmh 29.92 in1013.2 mb 0.00 in0.0 mm 0.00 in0.0 mm 0.00 in0.0 mm
10:45 AM 57.7°F14.3°C 39.2°F4.0°C 50% 10.8 mph SE17.4 kmh SE 17.3 mph27.8 kmh 29.92 in1013.2 mb 0.00 in0.0 mm 0.00 in0.0 mm 0.00 in0.0 mm
11:00 AM 57.9°F14.4°C 40.4°F4.7°C 52% 7.0 mph SE11.3 kmh SE 17.3 mph27.8 kmh 29.92 in1013.2 mb 0.00 in0.0 mm 0.00 in0.0 mm 0.00 in0.0 mm
11:15 AM 58.1°F14.5°C 41.0°F5.0°C 53% 11.4 mph SE18.3 kmh SE 17.3 mph27.8 kmh 29.92 in1013.2 mb 0.00 in0.0 mm 0.00 in0.0 mm 0.00 in0.0 mm
11:30 AM 57.9°F14.4°C 42.3°F5.7°C 56% 14.9 mph SE24.0 kmh SE 17.3 mph27.8 kmh 29.95 in1014.2 mb 0.00 in0.0 mm 0.00 in0.0 mm 0.00 in0.0 mm
11:45 AM 58.3°F14.6°C 42.6°F5.9°C 56% 10.0 mph S16.1 kmh S 13.2 mph21.2 kmh 29.95 in1014.2 mb 0.00 in0.0 mm 0.00 in0.0 mm 0.00 in0.0 mm
12:00 PM 58.6°F14.8°C 40.6°F4.8°C 51% 13.8 mph SSE22.2 kmh SSE 16.7 mph26.9 kmh 29.95 in1014.2 mb 0.00 in0.0 mm 0.00 in0.0 mm 0.00 in0.0 mm
12:15 PM 59.0°F15.0°C 40.4°F4.7°C 50% 10.8 mph SSE17.4 kmh SSE 20.2 mph32.5 kmh 29.95 in1014.2 mb 0.00 in0.0 mm 0.00 in0.0 mm 0.00 in0.0 mm
12:30 PM 60.1°F15.6°C 40.8°F4.9°C 49% 14.4 mph SSE23.2 kmh SSE 16.1 mph25.9 kmh 29.95 in1014.2 mb 0.00 in0.0 mm 0.00 in0.0 mm 0.00 in0.0 mm
12:45 PM 60.1°F15.6°C 39.8°F4.3°C 47% 10.8 mph SE17.4 kmh SE 18.5 mph29.8 kmh 29.95 in1014.2 mb 0.00 in0.0 mm 0.00 in0.0 mm 0.00 in0.0 mm
01:00 PM 59.5°F15.3°C 39.3°F4.1°C 47% 14.4 mph SE23.2 kmh SE 17.3 mph27.8 kmh 29.95 in1014.2 mb 0.00 in0.0 mm 0.00 in0.0 mm 0.00 in0.0 mm
01:15 PM 59.7°F15.4°C 39.4°F4.1°C 47% 13.8 mph SE22.2 kmh SE 16.7 mph26.9 kmh 29.95 in1014.2 mb 0.00 in0.0 mm 0.00 in0.0 mm 0.00 in0.0 mm
01:30 PM 59.2°F15.1°C 38.9°F3.8°C 47% 10.8 mph SE17.4 kmh SE 16.1 mph25.9 kmh 29.95 in1014.2 mb 0.00 in0.0 mm 0.00 in0.0 mm 0.00 in0.0 mm
01:45 PM 59.2°F15.1°C 40.0°F4.4°C 49% 13.8 mph SE22.2 kmh SE 16.7 mph26.9 kmh 29.95 in1014.2 mb 0.00 in0.0 mm 0.00 in0.0 mm 0.00 in0.0 mm
02:00 PM 59.4°F15.2°C 39.7°F4.3°C 48% 8.8 mph SE14.2 kmh SE 16.7 mph26.9 kmh 29.95 in1014.2 mb 0.00 in0.0 mm 0.00 in0.0 mm 0.00 in0.0 mm
02:15 PM 59.5°F15.3°C 39.8°F4.3°C 48% 11.4 mph SE18.3 kmh SE 19.0 mph30.6 kmh 29.95 in1014.2 mb 0.00 in0.0 mm 0.00 in0.0 mm 0.00 in0.0 mm
02:30 PM 60.3°F15.7°C 39.4°F4.1°C 46% 13.2 mph SE21.2 kmh SE 20.2 mph32.5 kmh 29.95 in1014.2 mb 0.00 in0.0 mm 0.00 in0.0 mm 0.00 in0.0 mm
03:00 PM 60.4°F15.8°C 39.5°F4.2°C 46% 12.6 mph SE20.3 kmh SE 19.6 mph31.5 kmh 29.95 in1014.2 mb 0.00 in0.0 mm 0.00 in0.0 mm 0.00 in0.0 mm
03:15 PM 60.1°F15.6°C 39.2°F4.0°C 46% 16.1 mph SE25.9 kmh SE 22.3 mph35.9 kmh 29.95 in1014.2 mb 0.00 in0.0 mm 0.00 in0.0 mm 0.00 in0.0 mm
03:30 PM 59.9°F15.5°C 40.1°F4.5°C 48% 14.9 mph SE24.0 kmh SE 20.2 mph32.5 kmh 29.95 in1014.2 mb 0.00 in0.0 mm 0.00 in0.0 mm 0.00 in0.0 mm
03:45 PM 59.9°F15.5°C 39.6°F4.2°C 47% 12.0 mph SE19.3 kmh SE 22.3 mph35.9 kmh 29.95 in1014.2 mb 0.00 in0.0 mm 0.00 in0.0 mm 0.00 in0.0 mm
04:00 PM 59.7°F15.4°C 39.4°F4.1°C 47% 13.2 mph SE21.2 kmh SE 19.6 mph31.5 kmh 29.95 in1014.2 mb 0.00 in0.0 mm 0.00 in0.0 mm 0.00 in0.0 mm
04:15 PM 59.7°F15.4°C 40.0°F4.4°C 48% 9.4 mph SE15.1 kmh SE 16.7 mph26.9 kmh 29.95 in1014.2 mb 0.00 in0.0 mm 0.00 in0.0 mm 0.00 in0.0 mm
04:30 PM 59.7°F15.4°C 40.5°F4.7°C 49% 12.6 mph SE20.3 kmh SE 14.4 mph23.2 kmh 29.92 in1013.2 mb 0.00 in0.0 mm 0.00 in0.0 mm 0.00 in0.0 mm
04:45 PM 59.2°F15.1°C 40.0°F4.4°C 49% 14.9 mph SE24.0 kmh SE 17.3 mph27.8 kmh 29.95 in1014.2 mb 0.00 in0.0 mm 0.00 in0.0 mm 0.00 in0.0 mm
05:00 PM 57.9°F14.4°C 39.9°F4.4°C 51% 11.4 mph SSE18.3 kmh SSE 16.7 mph26.9 kmh 29.95 in1014.2 mb 0.00 in0.0 mm 0.00 in0.0 mm 0.00 in0.0 mm
05:15 PM 57.7°F14.3°C 40.7°F4.8°C 53% 10.5 mph SE16.9 kmh SE 19.6 mph31.5 kmh 29.92 in1013.2 mb 0.00 in0.0 mm 0.00 in0.0 mm 0.00 in0.0 mm
05:30 PM 57.2°F14.0°C 41.2°F5.1°C 55% 8.8 mph SE14.2 kmh SE 14.4 mph23.2 kmh 29.95 in1014.2 mb 0.00 in0.0 mm 0.00 in0.0 mm 0.00 in0.0 mm
05:45 PM 56.8°F13.8°C 41.8°F5.4°C 57% 8.8 mph SSE14.2 kmh SSE 13.8 mph22.2 kmh 29.95 in1014.2 mb 0.00 in0.0 mm 0.00 in0.0 mm 0.00 in0.0 mm
06:00 PM 56.5°F13.6°C 42.8°F6.0°C 60% 10.5 mph SSE16.9 kmh SSE 16.1 mph25.9 kmh 29.95 in1014.2 mb 0.00 in0.0 mm 0.00 in0.0 mm 0.00 in0.0 mm
06:15 PM 56.1°F13.4°C 43.3°F6.3°C 62% 10.5 mph S16.9 kmh S 16.7 mph26.9 kmh 29.95 in1014.2 mb 0.00 in0.0 mm 0.00 in0.0 mm 0.00 in0.0 mm
06:30 PM 55.8°F13.2°C 43.3°F6.3°C 63% 8.8 mph SE14.2 kmh SE 13.2 mph21.2 kmh 29.95 in1014.2 mb 0.00 in0.0 mm 0.00 in0.0 mm 0.00 in0.0 mm
06:45 PM 55.6°F13.1°C 44.4°F6.9°C 66% 7.6 mph SSE12.2 kmh SSE 16.1 mph25.9 kmh 29.95 in1014.2 mb 0.00 in0.0 mm 0.00 in0.0 mm 0.00 in0.0 mm
07:00 PM 55.6°F13.1°C 44.8°F7.1°C 67% 4.1 mph SE6.6 kmh SE 7.6 mph12.2 kmh 29.95 in1014.2 mb 0.00 in0.0 mm 0.00 in0.0 mm 0.00 in0.0 mm
07:15 PM 55.4°F13.0°C 45.0°F7.2°C 68% 5.9 mph S9.5 kmh S 8.2 mph13.2 kmh 29.95 in1014.2 mb 0.00 in0.0 mm 0.00 in0.0 mm 0.00 in0.0 mm
07:30 PM 55.2°F12.9°C 45.6°F7.6°C 70% 6.4 mph SE10.3 kmh SE 8.8 mph14.2 kmh 29.95 in1014.2 mb 0.00 in0.0 mm 0.00 in0.0 mm 0.00 in0.0 mm
07:45 PM 55.2°F12.9°C 46.0°F7.8°C 71% 3.5 mph SSE5.6 kmh SSE 9.4 mph15.1 kmh 29.95 in1014.2 mb 0.00 in0.0 mm 0.00 in0.0 mm 0.00 in0.0 mm
08:00 PM 55.2°F12.9°C 46.3°F7.9°C 72% 3.5 mph SSE5.6 kmh SSE 6.4 mph10.3 kmh 29.98 in1015.2 mb 0.00 in0.0 mm 0.00 in0.0 mm 0.00 in0.0 mm
08:15 PM 55.0°F12.8°C 46.9°F8.3°C 74% Calm Calm -- 29.98 in1015.2 mb 0.00 in0.0 mm 0.00 in0.0 mm 0.00 in0.0 mm
08:30 PM 54.5°F12.5°C 46.4°F8.0°C 74% Calm Calm 5.3 mph8.5 kmh 29.98 in1015.2 mb 0.00 in0.0 mm 0.00 in0.0 mm 0.00 in0.0 mm
08:45 PM 54.3°F12.4°C 46.2°F7.9°C 74% Calm Calm 6.4 mph10.3 kmh 29.98 in1015.2 mb 0.00 in0.0 mm 0.00 in0.0 mm 0.00 in0.0 mm
09:00 PM 52.7°F11.5°C 45.7°F7.6°C 77% Calm Calm -- 29.98 in1015.2 mb 0.00 in0.0 mm 0.00 in0.0 mm 0.00 in0.0 mm
09:15 PM 50.7°F10.4°C 44.4°F6.9°C 79% Calm Calm -- 29.98 in1015.2 mb 0.00 in0.0 mm 0.00 in0.0 mm 0.00 in0.0 mm
09:30 PM 50.2°F10.1°C 44.2°F6.8°C 80% Calm Calm -- 29.98 in1015.2 mb 0.00 in0.0 mm 0.00 in0.0 mm 0.00 in0.0 mm
09:45 PM 49.5°F9.7°C 45.4°F7.4°C 86% 5.9 mph WNW9.5 kmh WNW 7.0 mph11.3 kmh 29.98 in1015.2 mb 0.00 in0.0 mm 0.00 in0.0 mm 0.00 in0.0 mm
10:00 PM 48.6°F9.2°C 44.3°F6.8°C 85% Calm Calm 5.3 mph8.5 kmh 29.98 in1015.2 mb 0.00 in0.0 mm 0.00 in0.0 mm 0.00 in0.0 mm
10:15 PM 47.8°F8.8°C 43.9°F6.6°C 86% Calm Calm -- 29.98 in1015.2 mb 0.00 in0.0 mm 0.00 in0.0 mm 0.00 in0.0 mm
10:30 PM 47.1°F8.4°C 43.4°F6.3°C 87% Calm Calm -- 29.98 in1015.2 mb 0.00 in0.0 mm 0.00 in0.0 mm 0.00 in0.0 mm
10:45 PM 46.9°F8.3°C 44.2°F6.8°C 90% 5.3 mph WNW8.5 kmh WNW 7.0 mph11.3 kmh 29.98 in1015.2 mb 0.00 in0.0 mm 0.00 in0.0 mm 0.00 in0.0 mm
11:00 PM 46.2°F7.9°C 43.4°F6.3°C 90% 4.7 mph W7.6 kmh W 7.0 mph11.3 kmh 29.98 in1015.2 mb 0.00 in0.0 mm 0.00 in0.0 mm 0.00 in0.0 mm
11:15 PM 45.9°F7.7°C 43.4°F6.3°C 91% 4.1 mph W6.6 kmh W 7.0 mph11.3 kmh 29.98 in1015.2 mb 0.00 in0.0 mm 0.00 in0.0 mm 0.00 in0.0 mm
11:30 PM 45.7°F7.6°C 43.5°F6.4°C 92% Calm Calm 7.6 mph12.2 kmh 29.98 in1015.2 mb 0.00 in0.0 mm 0.00 in0.0 mm 0.00 in0.0 mm
11:45 PM 44.8°F7.1°C 42.0°F5.6°C 90% 4.7 mph WNW7.6 kmh WNW 5.3 mph8.5 kmh 29.98 in1015.2 mb 0.00 in0.0 mm 0.00 in0.0 mm 0.00 in0.0 mm